sensor_id;sensor_type;location;lat;lon;timestamp;P1;durP1;ratioP1;P2;durP2;ratioP2
68089;SDS011;54880;50.986;6.990;2023-09-12T00:00:40;14.73;;;8.20;;
68089;SDS011;54880;50.986;6.990;2023-09-12T00:03:06;13.23;;;7.03;;
68089;SDS011;54880;50.986;6.990;2023-09-12T00:05:31;15.97;;;8.00;;
68089;SDS011;54880;50.986;6.990;2023-09-12T00:07:56;15.90;;;8.57;;
68089;SDS011;54880;50.986;6.990;2023-09-12T00:10:21;13.87;;;8.30;;
68089;SDS011;54880;50.986;6.990;2023-09-12T00:12:46;18.10;;;9.33;;
68089;SDS011;54880;50.986;6.990;2023-09-12T00:15:12;19.23;;;9.73;;
68089;SDS011;54880;50.986;6.990;2023-09-12T00:17:37;17.65;;;8.90;;
68089;SDS011;54880;50.986;6.990;2023-09-12T00:20:03;16.00;;;9.20;;
68089;SDS011;54880;50.986;6.990;2023-09-12T00:22:29;15.60;;;8.43;;
68089;SDS011;54880;50.986;6.990;2023-09-12T00:24:54;16.27;;;7.80;;
68089;SDS011;54880;50.986;6.990;2023-09-12T00:27:20;15.43;;;7.00;;
68089;SDS011;54880;50.986;6.990;2023-09-12T00:29:45;12.70;;;6.40;;
68089;SDS011;54880;50.986;6.990;2023-09-12T00:32:12;11.23;;;6.28;;
68089;SDS011;54880;50.986;6.990;2023-09-12T00:34:37;13.40;;;6.37;;
68089;SDS011;54880;50.986;6.990;2023-09-12T00:37:02;11.23;;;6.70;;
68089;SDS011;54880;50.986;6.990;2023-09-12T00:39:28;13.17;;;5.83;;
68089;SDS011;54880;50.986;6.990;2023-09-12T00:41:53;11.17;;;6.03;;
68089;SDS011;54880;50.986;6.990;2023-09-12T00:44:18;11.93;;;6.50;;
68089;SDS011;54880;50.986;6.990;2023-09-12T00:46:44;14.13;;;6.80;;
68089;SDS011;54880;50.986;6.990;2023-09-12T00:49:09;13.07;;;7.00;;
68089;SDS011;54880;50.986;6.990;2023-09-12T00:51:35;13.50;;;7.50;;
68089;SDS011;54880;50.986;6.990;2023-09-12T00:54:02;14.18;;;7.35;;
68089;SDS011;54880;50.986;6.990;2023-09-12T00:56:28;14.93;;;7.27;;
68089;SDS011;54880;50.986;6.990;2023-09-12T00:58:53;14.37;;;6.63;;
68089;SDS011;54880;50.986;6.990;2023-09-12T01:01:19;9.53;;;5.30;;
68089;SDS011;54880;50.986;6.990;2023-09-12T01:03:44;12.38;;;6.50;;
68089;SDS011;54880;50.986;6.990;2023-09-12T01:06:10;12.20;;;6.13;;
68089;SDS011;54880;50.986;6.990;2023-09-12T01:08:36;12.00;;;6.00;;
68089;SDS011;54880;50.986;6.990;2023-09-12T01:11:04;9.43;;;5.00;;
68089;SDS011;54880;50.986;6.990;2023-09-12T01:13:30;11.83;;;5.10;;
68089;SDS011;54880;50.986;6.990;2023-09-12T01:15:55;12.83;;;4.17;;
68089;SDS011;54880;50.986;6.990;2023-09-12T01:18:20;11.70;;;4.50;;
68089;SDS011;54880;50.986;6.990;2023-09-12T01:21:30;11.23;;;4.88;;
68089;SDS011;54880;50.986;6.990;2023-09-12T01:23:39;9.63;;;4.50;;
68089;SDS011;54880;50.986;6.990;2023-09-12T01:28:49;8.88;;;4.38;;
68089;SDS011;54880;50.986;6.990;2023-09-12T01:31:16;9.15;;;3.63;;
68089;SDS011;54880;50.986;6.990;2023-09-12T01:33:42;8.40;;;4.33;;
68089;SDS011;54880;50.986;6.990;2023-09-12T01:36:09;7.90;;;4.00;;
68089;SDS011;54880;50.986;6.990;2023-09-12T01:38:34;9.50;;;4.40;;
68089;SDS011;54880;50.986;6.990;2023-09-12T01:41:00;9.80;;;4.37;;
68089;SDS011;54880;50.986;6.990;2023-09-12T01:43:25;12.47;;;4.57;;
68089;SDS011;54880;50.986;6.990;2023-09-12T01:45:55;10.32;;;4.25;;
68089;SDS011;54880;50.986;6.990;2023-09-12T01:48:22;9.05;;;4.20;;
68089;SDS011;54880;50.986;6.990;2023-09-12T01:50:48;9.35;;;4.43;;
68089;SDS011;54880;50.986;6.990;2023-09-12T01:53:14;9.27;;;4.35;;
68089;SDS011;54880;50.986;6.990;2023-09-12T01:55:40;8.37;;;4.20;;
68089;SDS011;54880;50.986;6.990;2023-09-12T01:58:07;9.05;;;4.55;;
68089;SDS011;54880;50.986;6.990;2023-09-12T02:00:33;9.73;;;4.37;;
68089;SDS011;54880;50.986;6.990;2023-09-12T02:02:58;9.02;;;4.13;;
68089;SDS011;54880;50.986;6.990;2023-09-12T02:05:23;8.90;;;4.10;;
68089;SDS011;54880;50.986;6.990;2023-09-12T02:07:49;8.70;;;4.00;;
68089;SDS011;54880;50.986;6.990;2023-09-12T02:10:15;9.30;;;4.57;;
68089;SDS011;54880;50.986;6.990;2023-09-12T02:12:40;10.77;;;4.88;;
68089;SDS011;54880;50.986;6.990;2023-09-12T02:15:06;10.43;;;4.50;;
68089;SDS011;54880;50.986;6.990;2023-09-12T02:17:31;10.50;;;4.68;;
68089;SDS011;54880;50.986;6.990;2023-09-12T02:19:57;12.17;;;4.73;;
68089;SDS011;54880;50.986;6.990;2023-09-12T02:22:22;12.13;;;4.90;;
68089;SDS011;54880;50.986;6.990;2023-09-12T02:24:47;8.40;;;4.57;;
68089;SDS011;54880;50.986;6.990;2023-09-12T02:27:14;9.80;;;4.60;;
68089;SDS011;54880;50.986;6.990;2023-09-12T02:29:41;10.90;;;4.65;;
68089;SDS011;54880;50.986;6.990;2023-09-12T02:32:06;10.17;;;4.20;;
68089;SDS011;54880;50.986;6.990;2023-09-12T02:34:32;8.60;;;4.40;;
68089;SDS011;54880;50.986;6.990;2023-09-12T02:36:57;9.20;;;5.35;;
68089;SDS011;54880;50.986;6.990;2023-09-12T02:39:22;12.30;;;5.73;;
68089;SDS011;54880;50.986;6.990;2023-09-12T02:41:48;9.33;;;4.50;;
68089;SDS011;54880;50.986;6.990;2023-09-12T02:44:13;10.77;;;4.50;;
68089;SDS011;54880;50.986;6.990;2023-09-12T02:46:39;9.52;;;5.00;;
68089;SDS011;54880;50.986;6.990;2023-09-12T02:49:04;8.97;;;4.40;;
68089;SDS011;54880;50.986;6.990;2023-09-12T02:51:29;11.00;;;4.90;;
68089;SDS011;54880;50.986;6.990;2023-09-12T02:53:54;10.43;;;5.03;;
68089;SDS011;54880;50.986;6.990;2023-09-12T02:56:20;9.47;;;4.63;;
68089;SDS011;54880;50.986;6.990;2023-09-12T02:58:45;10.87;;;4.70;;
68089;SDS011;54880;50.986;6.990;2023-09-12T03:01:14;9.03;;;4.63;;
68089;SDS011;54880;50.986;6.990;2023-09-12T03:03:39;10.48;;;4.65;;
68089;SDS011;54880;50.986;6.990;2023-09-12T03:06:04;11.40;;;5.03;;
68089;SDS011;54880;50.986;6.990;2023-09-12T03:08:30;11.67;;;5.83;;
68089;SDS011;54880;50.986;6.990;2023-09-12T03:10:55;12.13;;;6.57;;
68089;SDS011;54880;50.986;6.990;2023-09-12T03:13:22;10.63;;;6.28;;
68089;SDS011;54880;50.986;6.990;2023-09-12T03:15:47;13.02;;;6.20;;
68089;SDS011;54880;50.986;6.990;2023-09-12T03:18:12;13.07;;;6.80;;
68089;SDS011;54880;50.986;6.990;2023-09-12T03:20:38;15.03;;;6.27;;
68089;SDS011;54880;50.986;6.990;2023-09-12T03:23:04;13.43;;;6.72;;
68089;SDS011;54880;50.986;6.990;2023-09-12T03:25:29;13.47;;;6.20;;
68089;SDS011;54880;50.986;6.990;2023-09-12T03:27:54;12.70;;;6.57;;
68089;SDS011;54880;50.986;6.990;2023-09-12T03:30:20;12.77;;;6.43;;
68089;SDS011;54880;50.986;6.990;2023-09-12T03:32:45;12.77;;;6.47;;
68089;SDS011;54880;50.986;6.990;2023-09-12T03:35:10;12.10;;;6.43;;
68089;SDS011;54880;50.986;6.990;2023-09-12T03:37:36;12.27;;;7.00;;
68089;SDS011;54880;50.986;6.990;2023-09-12T03:40:06;12.25;;;6.18;;
68089;SDS011;54880;50.986;6.990;2023-09-12T03:42:31;17.58;;;6.32;;
68089;SDS011;54880;50.986;6.990;2023-09-12T03:44:57;14.33;;;6.27;;
68089;SDS011;54880;50.986;6.990;2023-09-12T03:47:22;12.83;;;6.83;;
68089;SDS011;54880;50.986;6.990;2023-09-12T03:49:47;12.13;;;6.27;;
68089;SDS011;54880;50.986;6.990;2023-09-12T03:52:12;15.20;;;7.13;;
68089;SDS011;54880;50.986;6.990;2023-09-12T03:54:38;10.93;;;6.50;;
68089;SDS011;54880;50.986;6.990;2023-09-12T03:57:03;15.47;;;7.50;;
68089;SDS011;54880;50.986;6.990;2023-09-12T03:59:28;13.60;;;6.88;;
68089;SDS011;54880;50.986;6.990;2023-09-12T04:01:54;12.67;;;6.73;;
68089;SDS011;54880;50.986;6.990;2023-09-12T04:04:19;12.67;;;7.03;;
68089;SDS011;54880;50.986;6.990;2023-09-12T04:06:44;13.13;;;7.03;;
68089;SDS011;54880;50.986;6.990;2023-09-12T04:09:10;14.80;;;6.70;;
68089;SDS011;54880;50.986;6.990;2023-09-12T04:11:35;12.67;;;6.50;;
68089;SDS011;54880;50.986;6.990;2023-09-12T04:14:00;13.37;;;6.93;;
68089;SDS011;54880;50.986;6.990;2023-09-12T04:16:26;13.27;;;6.90;;
68089;SDS011;54880;50.986;6.990;2023-09-12T04:18:51;15.27;;;6.73;;
68089;SDS011;54880;50.986;6.990;2023-09-12T04:21:16;11.97;;;6.37;;
68089;SDS011;54880;50.986;6.990;2023-09-12T04:23:42;16.23;;;6.30;;
68089;SDS011;54880;50.986;6.990;2023-09-12T04:26:07;10.10;;;6.15;;
68089;SDS011;54880;50.986;6.990;2023-09-12T04:28:32;13.83;;;6.23;;
68089;SDS011;54880;50.986;6.990;2023-09-12T04:31:01;13.30;;;6.43;;
68089;SDS011;54880;50.986;6.990;2023-09-12T04:33:27;10.85;;;5.90;;
68089;SDS011;54880;50.986;6.990;2023-09-12T04:35:52;12.30;;;6.35;;
68089;SDS011;54880;50.986;6.990;2023-09-12T04:38:18;11.32;;;6.53;;
68089;SDS011;54880;50.986;6.990;2023-09-12T04:40:52;13.37;;;5.90;;
68089;SDS011;54880;50.986;6.990;2023-09-12T04:43:18;11.23;;;5.97;;
68089;SDS011;54880;50.986;6.990;2023-09-12T04:45:43;10.67;;;6.00;;
68089;SDS011;54880;50.986;6.990;2023-09-12T04:48:08;11.83;;;5.70;;
68089;SDS011;54880;50.986;6.990;2023-09-12T04:50:34;9.67;;;5.60;;
68089;SDS011;54880;50.986;6.990;2023-09-12T04:53:05;13.90;;;5.68;;
68089;SDS011;54880;50.986;6.990;2023-09-12T04:55:30;10.60;;;5.57;;
68089;SDS011;54880;50.986;6.990;2023-09-12T04:57:55;11.07;;;5.83;;
68089;SDS011;54880;50.986;6.990;2023-09-12T05:00:20;10.47;;;5.77;;
68089;SDS011;54880;50.986;6.990;2023-09-12T05:02:46;11.00;;;5.30;;
68089;SDS011;54880;50.986;6.990;2023-09-12T05:05:11;12.60;;;5.15;;
68089;SDS011;54880;50.986;6.990;2023-09-12T05:07:37;8.93;;;4.70;;
68089;SDS011;54880;50.986;6.990;2023-09-12T05:10:02;10.30;;;5.53;;
68089;SDS011;54880;50.986;6.990;2023-09-12T05:12:28;10.02;;;5.55;;
68089;SDS011;54880;50.986;6.990;2023-09-12T05:14:54;10.77;;;5.50;;
68089;SDS011;54880;50.986;6.990;2023-09-12T05:17:19;11.93;;;5.57;;
68089;SDS011;54880;50.986;6.990;2023-09-12T05:19:44;9.73;;;5.57;;
68089;SDS011;54880;50.986;6.990;2023-09-12T05:22:10;9.97;;;5.50;;
68089;SDS011;54880;50.986;6.990;2023-09-12T05:24:35;10.48;;;5.22;;
68089;SDS011;54880;50.986;6.990;2023-09-12T05:27:01;10.05;;;5.50;;
68089;SDS011;54880;50.986;6.990;2023-09-12T05:29:26;14.37;;;5.80;;
68089;SDS011;54880;50.986;6.990;2023-09-12T05:31:51;11.93;;;5.60;;
68089;SDS011;54880;50.986;6.990;2023-09-12T05:34:17;11.53;;;5.67;;
68089;SDS011;54880;50.986;6.990;2023-09-12T05:36:42;11.50;;;5.70;;
68089;SDS011;54880;50.986;6.990;2023-09-12T05:39:08;13.18;;;5.20;;
68089;SDS011;54880;50.986;6.990;2023-09-12T05:41:34;9.73;;;5.00;;
68089;SDS011;54880;50.986;6.990;2023-09-12T05:43:59;10.53;;;5.20;;
68089;SDS011;54880;50.986;6.990;2023-09-12T05:46:24;9.57;;;4.87;;
68089;SDS011;54880;50.986;6.990;2023-09-12T05:48:50;13.20;;;5.43;;
68089;SDS011;54880;50.986;6.990;2023-09-12T05:51:16;10.88;;;5.43;;
68089;SDS011;54880;50.986;6.990;2023-09-12T05:53:41;11.67;;;5.53;;
68089;SDS011;54880;50.986;6.990;2023-09-12T05:56:06;13.40;;;6.07;;
68089;SDS011;54880;50.986;6.990;2023-09-12T05:58:31;12.37;;;6.33;;
68089;SDS011;54880;50.986;6.990;2023-09-12T06:00:59;12.18;;;6.03;;
68089;SDS011;54880;50.986;6.990;2023-09-12T06:03:24;12.00;;;6.17;;
68089;SDS011;54880;50.986;6.990;2023-09-12T06:05:49;15.93;;;6.47;;
68089;SDS011;54880;50.986;6.990;2023-09-12T06:08:15;11.30;;;5.57;;
68089;SDS011;54880;50.986;6.990;2023-09-12T06:10:40;13.13;;;5.53;;
68089;SDS011;54880;50.986;6.990;2023-09-12T06:13:05;14.37;;;5.83;;
68089;SDS011;54880;50.986;6.990;2023-09-12T06:15:30;11.10;;;5.80;;
68089;SDS011;54880;50.986;6.990;2023-09-12T06:17:56;11.23;;;5.63;;
68089;SDS011;54880;50.986;6.990;2023-09-12T06:20:21;9.27;;;5.30;;
68089;SDS011;54880;50.986;6.990;2023-09-12T06:22:47;10.95;;;5.50;;
68089;SDS011;54880;50.986;6.990;2023-09-12T06:25:12;10.17;;;5.30;;
68089;SDS011;54880;50.986;6.990;2023-09-12T06:27:37;13.53;;;4.23;;
68089;SDS011;54880;50.986;6.990;2023-09-12T06:30:03;9.97;;;4.70;;
68089;SDS011;54880;50.986;6.990;2023-09-12T06:32:28;9.57;;;5.13;;
68089;SDS011;54880;50.986;6.990;2023-09-12T06:34:53;10.43;;;5.50;;
68089;SDS011;54880;50.986;6.990;2023-09-12T06:37:19;12.33;;;6.23;;
68089;SDS011;54880;50.986;6.990;2023-09-12T06:39:44;15.57;;;7.05;;
68089;SDS011;54880;50.986;6.990;2023-09-12T06:42:09;14.40;;;7.70;;
68089;SDS011;54880;50.986;6.990;2023-09-12T06:44:34;17.33;;;9.23;;
68089;SDS011;54880;50.986;6.990;2023-09-12T06:47:00;14.63;;;8.80;;
68089;SDS011;54880;50.986;6.990;2023-09-12T06:49:25;18.37;;;10.20;;
68089;SDS011;54880;50.986;6.990;2023-09-12T06:51:50;18.30;;;9.53;;
68089;SDS011;54880;50.986;6.990;2023-09-12T06:54:15;19.57;;;10.43;;
68089;SDS011;54880;50.986;6.990;2023-09-12T06:56:41;24.67;;;10.57;;
68089;SDS011;54880;50.986;6.990;2023-09-12T06:59:07;22.23;;;11.48;;
68089;SDS011;54880;50.986;6.990;2023-09-12T07:01:33;21.23;;;10.40;;
68089;SDS011;54880;50.986;6.990;2023-09-12T07:03:58;18.27;;;10.00;;
68089;SDS011;54880;50.986;6.990;2023-09-12T07:06:23;18.07;;;10.33;;
68089;SDS011;54880;50.986;6.990;2023-09-12T07:08:49;17.97;;;9.73;;
68089;SDS011;54880;50.986;6.990;2023-09-12T07:11:14;18.27;;;8.40;;
68089;SDS011;54880;50.986;6.990;2023-09-12T07:13:39;12.68;;;8.45;;
68089;SDS011;54880;50.986;6.990;2023-09-12T07:16:05;16.00;;;7.93;;
68089;SDS011;54880;50.986;6.990;2023-09-12T07:18:31;13.50;;;8.10;;
68089;SDS011;54880;50.986;6.990;2023-09-12T07:21:02;13.20;;;6.90;;
68089;SDS011;54880;50.986;6.990;2023-09-12T07:23:28;16.10;;;7.43;;
68089;SDS011;54880;50.986;6.990;2023-09-12T07:25:54;13.18;;;7.32;;
68089;SDS011;54880;50.986;6.990;2023-09-12T07:28:20;14.23;;;7.32;;
68089;SDS011;54880;50.986;6.990;2023-09-12T07:30:46;12.65;;;6.32;;
68089;SDS011;54880;50.986;6.990;2023-09-12T07:33:11;11.37;;;6.60;;
68089;SDS011;54880;50.986;6.990;2023-09-12T07:35:37;13.37;;;6.10;;
68089;SDS011;54880;50.986;6.990;2023-09-12T07:38:02;13.00;;;6.73;;
68089;SDS011;54880;50.986;6.990;2023-09-12T07:40:28;12.00;;;6.20;;
68089;SDS011;54880;50.986;6.990;2023-09-12T07:42:54;13.60;;;6.40;;
68089;SDS011;54880;50.986;6.990;2023-09-12T07:45:19;12.63;;;6.13;;
68089;SDS011;54880;50.986;6.990;2023-09-12T07:47:45;13.17;;;6.47;;
68089;SDS011;54880;50.986;6.990;2023-09-12T07:50:10;12.43;;;5.68;;
68089;SDS011;54880;50.986;6.990;2023-09-12T07:52:35;13.00;;;5.75;;
68089;SDS011;54880;50.986;6.990;2023-09-12T07:55:04;12.02;;;5.90;;
68089;SDS011;54880;50.986;6.990;2023-09-12T07:57:30;12.93;;;6.00;;
68089;SDS011;54880;50.986;6.990;2023-09-12T07:59:55;12.83;;;5.97;;
68089;SDS011;54880;50.986;6.990;2023-09-12T08:02:21;13.50;;;5.70;;
68089;SDS011;54880;50.986;6.990;2023-09-12T08:04:46;12.17;;;5.40;;
68089;SDS011;54880;50.986;6.990;2023-09-12T08:07:11;13.20;;;5.77;;
68089;SDS011;54880;50.986;6.990;2023-09-12T08:09:50;12.10;;;5.10;;
68089;SDS011;54880;50.986;6.990;2023-09-12T08:12:16;11.60;;;5.82;;
68089;SDS011;54880;50.986;6.990;2023-09-12T08:14:41;11.55;;;5.30;;
68089;SDS011;54880;50.986;6.990;2023-09-12T08:17:06;11.70;;;5.70;;
68089;SDS011;54880;50.986;6.990;2023-09-12T08:19:31;9.85;;;5.38;;
68089;SDS011;54880;50.986;6.990;2023-09-12T08:21:57;12.55;;;5.93;;
68089;SDS011;54880;50.986;6.990;2023-09-12T08:24:22;14.98;;;5.72;;
68089;SDS011;54880;50.986;6.990;2023-09-12T08:26:47;11.88;;;5.93;;
68089;SDS011;54880;50.986;6.990;2023-09-12T08:29:12;9.80;;;5.80;;
68089;SDS011;54880;50.986;6.990;2023-09-12T08:31:37;10.57;;;5.60;;
68089;SDS011;54880;50.986;6.990;2023-09-12T08:34:03;15.32;;;6.15;;
68089;SDS011;54880;50.986;6.990;2023-09-12T08:36:28;12.00;;;5.60;;
68089;SDS011;54880;50.986;6.990;2023-09-12T08:38:53;13.88;;;6.78;;
68089;SDS011;54880;50.986;6.990;2023-09-12T08:41:18;10.73;;;6.38;;
68089;SDS011;54880;50.986;6.990;2023-09-12T08:43:44;11.68;;;6.38;;
68089;SDS011;54880;50.986;6.990;2023-09-12T08:46:10;10.63;;;6.37;;
68089;SDS011;54880;50.986;6.990;2023-09-12T08:48:35;10.43;;;5.97;;
68089;SDS011;54880;50.986;6.990;2023-09-12T08:51:02;11.32;;;6.40;;
68089;SDS011;54880;50.986;6.990;2023-09-12T08:53:29;14.32;;;6.40;;
68089;SDS011;54880;50.986;6.990;2023-09-12T08:55:54;16.13;;;7.30;;
68089;SDS011;54880;50.986;6.990;2023-09-12T08:58:19;15.50;;;6.67;;
68089;SDS011;54880;50.986;6.990;2023-09-12T09:00:45;12.60;;;6.93;;
68089;SDS011;54880;50.986;6.990;2023-09-12T09:03:11;11.93;;;7.30;;
68089;SDS011;54880;50.986;6.990;2023-09-12T09:05:37;12.00;;;5.88;;
68089;SDS011;54880;50.986;6.990;2023-09-12T09:08:03;10.45;;;7.00;;
68089;SDS011;54880;50.986;6.990;2023-09-12T09:10:29;13.23;;;7.10;;
68089;SDS011;54880;50.986;6.990;2023-09-12T09:12:57;12.82;;;7.38;;
68089;SDS011;54880;50.986;6.990;2023-09-12T09:15:31;14.67;;;6.50;;
68089;SDS011;54880;50.986;6.990;2023-09-12T09:17:57;13.30;;;7.50;;
68089;SDS011;54880;50.986;6.990;2023-09-12T09:23:03;13.57;;;6.73;;
68089;SDS011;54880;50.986;6.990;2023-09-12T09:25:34;12.57;;;6.85;;
68089;SDS011;54880;50.986;6.990;2023-09-12T09:28:15;12.20;;;6.20;;
68089;SDS011;54880;50.986;6.990;2023-09-12T09:30:41;13.80;;;6.05;;
68089;SDS011;54880;50.986;6.990;2023-09-12T09:33:07;14.73;;;7.10;;
68089;SDS011;54880;50.986;6.990;2023-09-12T09:35:32;14.93;;;7.07;;
68089;SDS011;54880;50.986;6.990;2023-09-12T09:37:58;10.60;;;7.13;;
68089;SDS011;54880;50.986;6.990;2023-09-12T09:40:23;14.17;;;7.10;;
68089;SDS011;54880;50.986;6.990;2023-09-12T09:42:53;14.80;;;6.85;;
68089;SDS011;54880;50.986;6.990;2023-09-12T09:45:18;14.47;;;6.67;;
68089;SDS011;54880;50.986;6.990;2023-09-12T09:47:43;12.30;;;6.85;;
68089;SDS011;54880;50.986;6.990;2023-09-12T09:50:10;13.10;;;6.63;;
68089;SDS011;54880;50.986;6.990;2023-09-12T09:52:38;11.00;;;6.20;;
68089;SDS011;54880;50.986;6.990;2023-09-12T09:55:06;14.83;;;6.60;;
68089;SDS011;54880;50.986;6.990;2023-09-12T09:57:36;11.10;;;5.83;;
68089;SDS011;54880;50.986;6.990;2023-09-12T10:00:01;9.50;;;5.43;;
68089;SDS011;54880;50.986;6.990;2023-09-12T10:02:30;10.88;;;5.78;;
68089;SDS011;54880;50.986;6.990;2023-09-12T10:04:56;11.38;;;5.40;;
68089;SDS011;54880;50.986;6.990;2023-09-12T10:07:23;10.82;;;5.95;;
68089;SDS011;54880;50.986;6.990;2023-09-12T10:09:49;13.43;;;5.30;;
68089;SDS011;54880;50.986;6.990;2023-09-12T10:12:14;12.50;;;5.63;;
68089;SDS011;54880;50.986;6.990;2023-09-12T10:14:39;11.27;;;5.30;;
68089;SDS011;54880;50.986;6.990;2023-09-12T10:17:05;12.43;;;5.85;;
68089;SDS011;54880;50.986;6.990;2023-09-12T10:19:43;11.20;;;5.67;;
68089;SDS011;54880;50.986;6.990;2023-09-12T10:24:40;11.37;;;5.67;;
68089;SDS011;54880;50.986;6.990;2023-09-12T10:27:06;9.98;;;6.05;;
68089;SDS011;54880;50.986;6.990;2023-09-12T10:29:32;12.00;;;5.97;;
68089;SDS011;54880;50.986;6.990;2023-09-12T10:31:57;10.43;;;5.00;;
68089;SDS011;54880;50.986;6.990;2023-09-12T10:34:23;8.53;;;4.40;;
68089;SDS011;54880;50.986;6.990;2023-09-12T10:36:49;9.95;;;4.65;;
68089;SDS011;54880;50.986;6.990;2023-09-12T10:39:15;10.70;;;5.33;;
68089;SDS011;54880;50.986;6.990;2023-09-12T10:41:40;12.60;;;5.30;;
68089;SDS011;54880;50.986;6.990;2023-09-12T10:44:10;11.73;;;5.00;;
68089;SDS011;54880;50.986;6.990;2023-09-12T10:46:36;9.32;;;4.63;;
68089;SDS011;54880;50.986;6.990;2023-09-12T10:49:03;9.35;;;4.93;;
68089;SDS011;54880;50.986;6.990;2023-09-12T10:51:29;10.73;;;5.25;;
68089;SDS011;54880;50.986;6.990;2023-09-12T10:53:54;10.67;;;5.37;;
68089;SDS011;54880;50.986;6.990;2023-09-12T10:56:19;8.43;;;5.13;;
68089;SDS011;54880;50.986;6.990;2023-09-12T11:01:35;8.48;;;4.75;;
68089;SDS011;54880;50.986;6.990;2023-09-12T11:06:44;8.40;;;4.43;;
68089;SDS011;54880;50.986;6.990;2023-09-12T11:09:21;10.37;;;5.00;;
68089;SDS011;54880;50.986;6.990;2023-09-12T11:11:46;10.80;;;4.95;;
68089;SDS011;54880;50.986;6.990;2023-09-12T11:14:12;9.95;;;4.93;;
68089;SDS011;54880;50.986;6.990;2023-09-12T11:16:38;8.90;;;5.20;;
68089;SDS011;54880;50.986;6.990;2023-09-12T11:19:20;14.05;;;4.88;;
68089;SDS011;54880;50.986;6.990;2023-09-12T11:21:49;10.95;;;5.50;;
68089;SDS011;54880;50.986;6.990;2023-09-12T11:24:15;10.43;;;5.38;;
68089;SDS011;54880;50.986;6.990;2023-09-12T11:26:59;9.47;;;5.10;;
68089;SDS011;54880;50.986;6.990;2023-09-12T11:29:29;10.32;;;5.68;;
68089;SDS011;54880;50.986;6.990;2023-09-12T11:31:56;9.93;;;5.43;;
68089;SDS011;54880;50.986;6.990;2023-09-12T11:34:24;9.95;;;6.07;;
68089;SDS011;54880;50.986;6.990;2023-09-12T11:36:49;13.57;;;5.55;;
68089;SDS011;54880;50.986;6.990;2023-09-12T11:39:24;10.63;;;6.10;;
68089;SDS011;54880;50.986;6.990;2023-09-12T11:41:50;11.98;;;6.18;;
68089;SDS011;54880;50.986;6.990;2023-09-12T11:44:16;13.25;;;6.32;;
68089;SDS011;54880;50.986;6.990;2023-09-12T11:46:41;9.45;;;6.03;;
68089;SDS011;54880;50.986;6.990;2023-09-12T11:49:07;9.82;;;6.68;;
68089;SDS011;54880;50.986;6.990;2023-09-12T11:51:32;9.27;;;5.80;;
68089;SDS011;54880;50.986;6.990;2023-09-12T11:53:57;9.30;;;5.60;;
68089;SDS011;54880;50.986;6.990;2023-09-12T11:56:25;12.00;;;5.20;;
68089;SDS011;54880;50.986;6.990;2023-09-12T11:58:50;11.77;;;5.47;;
68089;SDS011;54880;50.986;6.990;2023-09-12T12:01:15;12.37;;;5.33;;
68089;SDS011;54880;50.986;6.990;2023-09-12T12:03:41;9.93;;;5.63;;
68089;SDS011;54880;50.986;6.990;2023-09-12T12:06:06;8.80;;;5.27;;
68089;SDS011;54880;50.986;6.990;2023-09-12T12:08:31;9.77;;;5.57;;
68089;SDS011;54880;50.986;6.990;2023-09-12T12:10:57;11.57;;;5.13;;
68089;SDS011;54880;50.986;6.990;2023-09-12T12:13:25;10.23;;;5.15;;
68089;SDS011;54880;50.986;6.990;2023-09-12T12:15:51;9.32;;;5.18;;
68089;SDS011;54880;50.986;6.990;2023-09-12T12:18:16;9.83;;;5.97;;
68089;SDS011;54880;50.986;6.990;2023-09-12T12:20:42;11.73;;;5.40;;
68089;SDS011;54880;50.986;6.990;2023-09-12T12:23:07;11.30;;;5.77;;
68089;SDS011;54880;50.986;6.990;2023-09-12T12:25:33;11.97;;;6.27;;
68089;SDS011;54880;50.986;6.990;2023-09-12T12:28:02;11.70;;;5.93;;
68089;SDS011;54880;50.986;6.990;2023-09-12T12:30:30;10.27;;;5.85;;
68089;SDS011;54880;50.986;6.990;2023-09-12T12:32:55;14.35;;;6.18;;
68089;SDS011;54880;50.986;6.990;2023-09-12T12:35:21;9.50;;;5.40;;
68089;SDS011;54880;50.986;6.990;2023-09-12T12:37:49;13.90;;;6.40;;
68089;SDS011;54880;50.986;6.990;2023-09-12T12:40:15;11.63;;;5.95;;
68089;SDS011;54880;50.986;6.990;2023-09-12T12:42:42;9.85;;;5.88;;
68089;SDS011;54880;50.986;6.990;2023-09-12T12:45:11;10.07;;;6.03;;
68089;SDS011;54880;50.986;6.990;2023-09-12T12:47:37;11.87;;;5.77;;
68089;SDS011;54880;50.986;6.990;2023-09-12T12:50:02;12.07;;;6.13;;
68089;SDS011;54880;50.986;6.990;2023-09-12T12:52:32;10.68;;;6.05;;
68089;SDS011;54880;50.986;6.990;2023-09-12T12:55:11;9.52;;;5.38;;
68089;SDS011;54880;50.986;6.990;2023-09-12T12:57:37;12.05;;;6.10;;
68089;SDS011;54880;50.986;6.990;2023-09-12T13:00:04;10.87;;;5.90;;
68089;SDS011;54880;50.986;6.990;2023-09-12T13:02:29;11.10;;;5.80;;
68089;SDS011;54880;50.986;6.990;2023-09-12T13:04:55;11.07;;;6.00;;
68089;SDS011;54880;50.986;6.990;2023-09-12T13:07:20;11.30;;;5.77;;
68089;SDS011;54880;50.986;6.990;2023-09-12T13:09:45;8.90;;;5.40;;
68089;SDS011;54880;50.986;6.990;2023-09-12T13:12:13;10.43;;;5.35;;
68089;SDS011;54880;50.986;6.990;2023-09-12T13:14:39;11.35;;;5.32;;
68089;SDS011;54880;50.986;6.990;2023-09-12T13:17:05;8.40;;;4.97;;
68089;SDS011;54880;50.986;6.990;2023-09-12T13:19:30;9.03;;;4.80;;
68089;SDS011;54880;50.986;6.990;2023-09-12T13:21:56;9.27;;;4.90;;
68089;SDS011;54880;50.986;6.990;2023-09-12T13:24:21;13.63;;;4.93;;
68089;SDS011;54880;50.986;6.990;2023-09-12T13:26:46;8.20;;;4.90;;
68089;SDS011;54880;50.986;6.990;2023-09-12T13:29:12;8.73;;;5.20;;
68089;SDS011;54880;50.986;6.990;2023-09-12T13:31:37;12.73;;;5.73;;
68089;SDS011;54880;50.986;6.990;2023-09-12T13:34:02;10.50;;;5.63;;
68089;SDS011;54880;50.986;6.990;2023-09-12T13:36:28;9.00;;;5.00;;
68089;SDS011;54880;50.986;6.990;2023-09-12T13:38:53;9.13;;;4.80;;
68089;SDS011;54880;50.986;6.990;2023-09-12T13:41:18;8.57;;;4.27;;
68089;SDS011;54880;50.986;6.990;2023-09-12T13:43:44;8.07;;;4.80;;
68089;SDS011;54880;50.986;6.990;2023-09-12T13:46:13;10.83;;;5.87;;
68089;SDS011;54880;50.986;6.990;2023-09-12T13:48:38;8.23;;;4.77;;
68089;SDS011;54880;50.986;6.990;2023-09-12T13:51:03;8.32;;;4.63;;
68089;SDS011;54880;50.986;6.990;2023-09-12T13:53:28;9.40;;;4.63;;
68089;SDS011;54880;50.986;6.990;2023-09-12T13:55:54;9.13;;;4.70;;
68089;SDS011;54880;50.986;6.990;2023-09-12T13:58:22;8.95;;;3.95;;
68089;SDS011;54880;50.986;6.990;2023-09-12T14:00:47;8.85;;;4.70;;
68089;SDS011;54880;50.986;6.990;2023-09-12T14:03:12;8.63;;;4.37;;
68089;SDS011;54880;50.986;6.990;2023-09-12T14:05:37;10.93;;;4.50;;
68089;SDS011;54880;50.986;6.990;2023-09-12T14:08:03;9.63;;;4.43;;
68089;SDS011;54880;50.986;6.990;2023-09-12T14:10:28;8.83;;;4.20;;
68089;SDS011;54880;50.986;6.990;2023-09-12T14:12:53;10.30;;;4.50;;
68089;SDS011;54880;50.986;6.990;2023-09-12T14:15:18;9.93;;;4.20;;
68089;SDS011;54880;50.986;6.990;2023-09-12T14:17:44;9.63;;;4.40;;
68089;SDS011;54880;50.986;6.990;2023-09-12T14:20:10;8.87;;;4.73;;
68089;SDS011;54880;50.986;6.990;2023-09-12T14:22:36;10.07;;;4.53;;
68089;SDS011;54880;50.986;6.990;2023-09-12T14:25:01;9.52;;;4.05;;
68089;SDS011;54880;50.986;6.990;2023-09-12T14:27:27;7.80;;;4.57;;
68089;SDS011;54880;50.986;6.990;2023-09-12T14:29:53;7.90;;;4.40;;
68089;SDS011;54880;50.986;6.990;2023-09-12T14:32:18;9.97;;;4.53;;
68089;SDS011;54880;50.986;6.990;2023-09-12T14:34:43;8.37;;;4.20;;
68089;SDS011;54880;50.986;6.990;2023-09-12T14:37:10;8.57;;;4.43;;
68089;SDS011;54880;50.986;6.990;2023-09-12T14:39:35;8.57;;;4.43;;
68089;SDS011;54880;50.986;6.990;2023-09-12T14:42:01;8.37;;;4.20;;
68089;SDS011;54880;50.986;6.990;2023-09-12T14:44:30;8.82;;;4.20;;